YPGV/GOV METAR and TAF weather

Enter ICAO airport designator
Station Type Date Time Source
YPGV METAR 2020/08/12 17:30 UTC NOAA

YPGV 121730Z AUTO 00000KT 6000 // NCD 21/20 Q1013


Station Type Date Time Source
YPGV Decoded METAR 2020/08/12 17:30 UTC NOAA

Station name not available
Aug 12, 2020 - 01:30 PM EDT / 2020.08.12 1730 UTC
Wind: Calm:0
Visibility: 3 mile(s):0
Temperature: 69 F (21 C)
Dew Point: 68 F (20 C)
Relative Humidity: 94%
Pressure (altimeter): 29.91 in. Hg (1013 hPa)
ob: YPGV 121730Z AUTO 00000KT 6000 // NCD 21/20 Q1013
cycle: 17

Station Type Date Time Source
YPGV TAF 2020/08/12 14:00 UTC NOAA

TAF YPGV 121253Z 1214/1302 12005KT 9999 SCT010
FM130000 08010KT 9999 SCT015 INTER 1214/1223 BKN010 PROB30 1216/1223 0500 FG

Example: see airport list